Aeroporto :
LOGIN :

Iscrizione | Disclaimer

   EN    FR    IT 

 










Sommario :    VFR   VFR Marginale   IFR   IFR Intensivo   IFR Molto Intensivo
Visibilità : 
Base nubi : 
>= 8 km
>= 3000ft
5 / 8 km
1000 / 3000 ft
1500m / 5 km
500 / 1000 ft
800 / 1500m
200 / 500 ft
< 800m
< 200 ft
Simboli :   Temporali  Nebbia  Neve Forte  Precipitazioni Forti  Vento > 20 kt
SIGMETs :   Varie  Temporali  Ghiacco  Turbolenza  Onda orograficha  Ceneri Vulcaniche






- Altitudine del aeroporto : 29 ft
- Codice IATA : SVG


ENZV - Sola

ULTIMO METAR :
  • 121020Z 10011KT 9999 SCT035 BKN047 07/02 Q0991 NOSIG

METARs OBSOLETI :
  • 120950Z 10010KT 9999 BKN040 07/02 Q0991 NOSIG
  • 120920Z 11008KT 070V140 9999 BKN040 07/01 Q0991 NOSIG
  • 120850Z 10008KT 9999 FEW045 BKN065 07/01 Q0992 NOSIG
  • 120820Z 10008KT 9999 FEW045 BKN080 07/00 Q0991 NOSIG
  • 120750Z 10011KT 9999 FEW045 BKN080 07/00 Q0992 NOSIG

TAF TAF ENZV
Valido dal 12 a 06 ore il 13 a 06 ore UTC


1206/1306 10008KT 9999 FEW020 BKN040
PROB40
TEMPO 1206/1210 11018G28KT



MetMap, La meteo Aeronautica in un colpo d'occhio ! - Copyright ORBIFLY Dicembre 2007 - Disclaimer

ORBIFLY MET'MAP TEAM :

Programmazione e sviluppo : Alexandra Zaïnal
Concezione e sviluppo : Baudouin d'Aumeries
Co-Programmazione e sviluppo : Marc-Olivier Méhu
Supporto tecnico e logistico : Manuel Goepfert
Aiuto per la traduzione : Arnaldo La Scala

Contatto : metmap@orbifly.com




FONTI E CREDITI :

   NOAA